sensor_id;sensor_type;location;lat;lon;timestamp;pressure;altitude;pressure_sealevel;temperature;humidity
8585;BME280;7180;52.742;11.420;2023-02-16T00:01:44;101758.09;;;-0.49;100.00
8585;BME280;7180;52.742;11.420;2023-02-16T00:04:19;101756.38;;;-0.47;100.00
8585;BME280;7180;52.742;11.420;2023-02-16T00:06:45;101764.13;;;-0.44;100.00
8585;BME280;7180;52.742;11.420;2023-02-16T00:09:11;101766.72;;;-0.41;100.00
8585;BME280;7180;52.742;11.420;2023-02-16T00:11:36;101765.00;;;-0.39;100.00
8585;BME280;7180;52.742;11.420;2023-02-16T00:14:21;101776.22;;;-0.37;100.00
8585;BME280;7180;52.742;11.420;2023-02-16T00:16:48;101771.94;;;-0.35;100.00
8585;BME280;7180;52.742;11.420;2023-02-16T00:19:21;101775.38;;;-0.33;100.00
8585;BME280;7180;52.742;11.420;2023-02-16T00:21:49;101768.47;;;-0.37;100.00
8585;BME280;7180;52.742;11.420;2023-02-16T00:24:15;101764.13;;;-0.40;100.00
8585;BME280;7180;52.742;11.420;2023-02-16T00:26:41;101758.09;;;-0.43;100.00
8585;BME280;7180;52.742;11.420;2023-02-16T00:29:11;101757.22;;;-0.50;100.00
8585;BME280;7180;52.742;11.420;2023-02-16T00:31:38;101752.03;;;-0.54;100.00
8585;BME280;7180;52.742;11.420;2023-02-16T00:34:36;101748.59;;;-0.58;100.00
8585;BME280;7180;52.742;11.420;2023-02-16T00:37:07;101754.56;;;-0.63;100.00
8585;BME280;7180;52.742;11.420;2023-02-16T00:39:34;101757.22;;;-0.54;100.00
8585;BME280;7180;52.742;11.420;2023-02-16T00:42:05;101763.22;;;-0.54;100.00
8585;BME280;7180;52.742;11.420;2023-02-16T00:44:46;101769.34;;;-0.35;100.00
8585;BME280;7180;52.742;11.420;2023-02-16T00:47:37;101782.31;;;-0.26;100.00
8585;BME280;7180;52.742;11.420;2023-02-16T00:50:13;101784.06;;;-0.22;100.00
8585;BME280;7180;52.742;11.420;2023-02-16T00:52:43;101779.78;;;-0.10;100.00
8585;BME280;7180;52.742;11.420;2023-02-16T00:57:51;101796.28;;;0.21;100.00
8585;BME280;7180;52.742;11.420;2023-02-16T01:00:26;101804.94;;;0.56;100.00
8585;BME280;7180;52.742;11.420;2023-02-16T01:02:57;101808.44;;;0.70;100.00
8585;BME280;7180;52.742;11.420;2023-02-16T01:05:23;101795.50;;;0.76;100.00
8585;BME280;7180;52.742;11.420;2023-02-16T01:07:48;101794.66;;;0.77;100.00
8585;BME280;7180;52.742;11.420;2023-02-16T01:10:33;101796.38;;;0.75;100.00
8585;BME280;7180;52.742;11.420;2023-02-16T01:13:17;101791.16;;;0.81;100.00
8585;BME280;7180;52.742;11.420;2023-02-16T01:15:43;101786.88;;;0.77;100.00
8585;BME280;7180;52.742;11.420;2023-02-16T01:18:14;101792.91;;;0.79;100.00
8585;BME280;7180;52.742;11.420;2023-02-16T01:20:41;101783.41;;;0.78;100.00
8585;BME280;7180;52.742;11.420;2023-02-16T01:23:06;101790.31;;;0.90;100.00
8585;BME280;7180;52.742;11.420;2023-02-16T01:25:31;101789.44;;;0.92;100.00
8585;BME280;7180;52.742;11.420;2023-02-16T01:27:57;101783.44;;;0.83;100.00
8585;BME280;7180;52.742;11.420;2023-02-16T01:30:24;101770.47;;;0.69;100.00
8585;BME280;7180;52.742;11.420;2023-02-16T01:32:50;101773.06;;;0.69;100.00
8585;BME280;7180;52.742;11.420;2023-02-16T01:37:42;101779.09;;;0.80;100.00
8585;BME280;7180;52.742;11.420;2023-02-16T01:40:21;101781.66;;;0.85;100.00
8585;BME280;7180;52.742;11.420;2023-02-16T01:42:54;101779.09;;;0.74;100.00
8585;BME280;7180;52.742;11.420;2023-02-16T01:45:32;101781.69;;;0.88;100.00
8585;BME280;7180;52.742;11.420;2023-02-16T01:48:05;101789.47;;;1.06;100.00
8585;BME280;7180;52.742;11.420;2023-02-16T01:50:48;101785.13;;;1.05;100.00
8585;BME280;7180;52.742;11.420;2023-02-16T01:55:47;101786.84;;;1.15;100.00
8585;BME280;7180;52.742;11.420;2023-02-16T02:03:16;101768.75;;;1.04;100.00
8585;BME280;7180;52.742;11.420;2023-02-16T02:06:01;101763.56;;;0.95;100.00
8585;BME280;7180;52.742;11.420;2023-02-16T02:08:36;101766.13;;;0.83;100.00
8585;BME280;7180;52.742;11.420;2023-02-16T02:13:42;101748.91;;;0.66;100.00
8585;BME280;7180;52.742;11.420;2023-02-16T02:16:09;101751.47;;;0.67;100.00
8585;BME280;7180;52.742;11.420;2023-02-16T02:18:35;101738.56;;;0.63;100.00
8585;BME280;7180;52.742;11.420;2023-02-16T02:21:31;101731.66;;;0.56;100.00
8585;BME280;7180;52.742;11.420;2023-02-16T02:27:24;101738.53;;;0.40;100.00
8585;BME280;7180;52.742;11.420;2023-02-16T02:32:47;101742.84;;;0.32;100.00
8585;BME280;7180;52.742;11.420;2023-02-16T02:35:57;101735.06;;;0.26;100.00
8585;BME280;7180;52.742;11.420;2023-02-16T02:38:47;101737.63;;;0.29;100.00
8585;BME280;7180;52.742;11.420;2023-02-16T02:41:45;101735.06;;;0.29;100.00
8585;BME280;7180;52.742;11.420;2023-02-16T02:44:30;101730.75;;;0.27;100.00
8585;BME280;7180;52.742;11.420;2023-02-16T02:46:57;101741.94;;;0.26;100.00
8585;BME280;7180;52.742;11.420;2023-02-16T02:49:23;101735.06;;;0.22;100.00
8585;BME280;7180;52.742;11.420;2023-02-16T02:51:48;101741.94;;;0.26;100.00
8585;BME280;7180;52.742;11.420;2023-02-16T02:54:30;101750.59;;;0.34;100.00
8585;BME280;7180;52.742;11.420;2023-02-16T03:00:19;101747.13;;;0.36;100.00
8585;BME280;7180;52.742;11.420;2023-02-16T03:03:24;101738.53;;;0.39;100.00
8585;BME280;7180;52.742;11.420;2023-02-16T03:06:06;101742.84;;;0.35;100.00
8585;BME280;7180;52.742;11.420;2023-02-16T03:08:35;101745.44;;;0.44;100.00
8585;BME280;7180;52.742;11.420;2023-02-16T03:11:11;101739.41;;;0.51;100.00
8585;BME280;7180;52.742;11.420;2023-02-16T03:14:08;101740.25;;;0.53;100.00
8585;BME280;7180;52.742;11.420;2023-02-16T03:16:43;101734.22;;;0.48;100.00
8585;BME280;7180;52.742;11.420;2023-02-16T03:19:11;101737.66;;;0.44;100.00
8585;BME280;7180;52.742;11.420;2023-02-16T03:21:57;101728.16;;;0.42;100.00
8585;BME280;7180;52.742;11.420;2023-02-16T03:24:42;101723.00;;;0.31;100.00
8585;BME280;7180;52.742;11.420;2023-02-16T03:27:28;101730.75;;;0.25;100.00
8585;BME280;7180;52.742;11.420;2023-02-16T03:30:14;101729.91;;;0.22;100.00
8585;BME280;7180;52.742;11.420;2023-02-16T03:32:41;101735.03;;;0.17;100.00
8585;BME280;7180;52.742;11.420;2023-02-16T03:35:07;101737.66;;;0.23;100.00
8585;BME280;7180;52.742;11.420;2023-02-16T03:37:33;101733.34;;;0.25;100.00
8585;BME280;7180;52.742;11.420;2023-02-16T03:39:59;101737.63;;;0.20;100.00
8585;BME280;7180;52.742;11.420;2023-02-16T03:43:00;101741.13;;;0.37;100.00
8585;BME280;7180;52.742;11.420;2023-02-16T03:45:26;101737.66;;;0.32;100.00
8585;BME280;7180;52.742;11.420;2023-02-16T03:47:53;101740.28;;;0.49;100.00
8585;BME280;7180;52.742;11.420;2023-02-16T03:50:18;101735.94;;;0.46;100.00
8585;BME280;7180;52.742;11.420;2023-02-16T03:52:44;101738.56;;;0.52;100.00
8585;BME280;7180;52.742;11.420;2023-02-16T03:55:09;101738.53;;;0.51;100.00
8585;BME280;7180;52.742;11.420;2023-02-16T03:57:34;101745.44;;;0.70;100.00
8585;BME280;7180;52.742;11.420;2023-02-16T04:00:00;101738.53;;;0.85;100.00
8585;BME280;7180;52.742;11.420;2023-02-16T04:02:27;101729.03;;;0.78;100.00
8585;BME280;7180;52.742;11.420;2023-02-16T04:04:52;101732.50;;;0.77;100.00
8585;BME280;7180;52.742;11.420;2023-02-16T04:07:17;101740.25;;;0.85;100.00
8585;BME280;7180;52.742;11.420;2023-02-16T04:09:43;101739.41;;;0.93;100.00
8585;BME280;7180;52.742;11.420;2023-02-16T04:12:10;101748.00;;;1.09;100.00
8585;BME280;7180;52.742;11.420;2023-02-16T04:14:54;101735.91;;;1.06;100.00
8585;BME280;7180;52.742;11.420;2023-02-16T04:17:20;101735.00;;;1.35;100.00
8585;BME280;7180;52.742;11.420;2023-02-16T04:19:45;101736.72;;;1.31;100.00
8585;BME280;7180;52.742;11.420;2023-02-16T04:22:10;101732.41;;;1.35;100.00
8585;BME280;7180;52.742;11.420;2023-02-16T04:24:35;101716.00;;;1.33;100.00
8585;BME280;7180;52.742;11.420;2023-02-16T04:27:01;101717.66;;;1.43;100.00
8585;BME280;7180;52.742;11.420;2023-02-16T04:29:26;101709.91;;;1.46;100.00
8585;BME280;7180;52.742;11.420;2023-02-16T04:31:51;101702.97;;;1.51;100.00
8585;BME280;7180;52.742;11.420;2023-02-16T04:34:17;101697.78;;;1.51;100.00
8585;BME280;7180;52.742;11.420;2023-02-16T04:36:43;101689.19;;;1.40;100.00
8585;BME280;7180;52.742;11.420;2023-02-16T04:39:08;101686.63;;;1.35;100.00
8585;BME280;7180;52.742;11.420;2023-02-16T04:41:33;101690.84;;;1.62;100.00
8585;BME280;7180;52.742;11.420;2023-02-16T04:43:58;101678.72;;;1.64;100.00
8585;BME280;7180;52.742;11.420;2023-02-16T04:46:24;101677.00;;;1.61;100.00
8585;BME280;7180;52.742;11.420;2023-02-16T04:48:49;101660.72;;;1.35;100.00
8585;BME280;7180;52.742;11.420;2023-02-16T04:51:14;101675.31;;;1.53;100.00
8585;BME280;7180;52.742;11.420;2023-02-16T04:53:40;101662.31;;;1.57;100.00
8585;BME280;7180;52.742;11.420;2023-02-16T04:56:08;101656.38;;;1.39;100.00
8585;BME280;7180;52.742;11.420;2023-02-16T04:58:34;101651.19;;;1.36;100.00
8585;BME280;7180;52.742;11.420;2023-02-16T05:01:00;101653.78;;;1.39;100.00
8585;BME280;7180;52.742;11.420;2023-02-16T05:03:25;101645.19;;;1.23;100.00
8585;BME280;7180;52.742;11.420;2023-02-16T05:05:50;101643.44;;;1.33;100.00
8585;BME280;7180;52.742;11.420;2023-02-16T05:08:15;101637.44;;;1.16;100.00
8585;BME280;7180;52.742;11.420;2023-02-16T05:10:41;101627.13;;;1.10;100.00
8585;BME280;7180;52.742;11.420;2023-02-16T05:13:09;101628.03;;;1.02;100.00
8585;BME280;7180;52.742;11.420;2023-02-16T05:15:53;101621.13;;;0.97;100.00
8585;BME280;7180;52.742;11.420;2023-02-16T05:18:18;101625.41;;;0.99;100.00
8585;BME280;7180;52.742;11.420;2023-02-16T05:20:43;101621.97;;;0.96;100.00
8585;BME280;7180;52.742;11.420;2023-02-16T05:23:27;101616.88;;;0.79;100.00
8585;BME280;7180;52.742;11.420;2023-02-16T05:25:52;101622.94;;;0.74;100.00
8585;BME280;7180;52.742;11.420;2023-02-16T05:28:17;101625.50;;;0.72;100.00
8585;BME280;7180;52.742;11.420;2023-02-16T05:30:43;101625.50;;;0.72;100.00
8585;BME280;7180;52.742;11.420;2023-02-16T05:33:08;101639.31;;;0.77;100.00
8585;BME280;7180;52.742;11.420;2023-02-16T05:35:33;101647.03;;;0.85;100.00
8585;BME280;7180;52.742;11.420;2023-02-16T05:37:59;101646.19;;;0.84;100.00
8585;BME280;7180;52.742;11.420;2023-02-16T05:40:24;101644.47;;;0.80;100.00
8585;BME280;7180;52.742;11.420;2023-02-16T05:42:54;101646.19;;;0.78;100.00
8585;BME280;7180;52.742;11.420;2023-02-16T05:45:19;101648.81;;;0.75;100.00
8585;BME280;7180;52.742;11.420;2023-02-16T05:47:44;101658.25;;;0.85;100.00
8585;BME280;7180;52.742;11.420;2023-02-16T05:50:10;101654.84;;;0.74;100.00
8585;BME280;7180;52.742;11.420;2023-02-16T05:52:36;101658.31;;;0.70;100.00
8585;BME280;7180;52.742;11.420;2023-02-16T05:55:01;101653.13;;;0.67;100.00
8585;BME280;7180;52.742;11.420;2023-02-16T05:57:27;101656.56;;;0.63;100.00
8585;BME280;7180;52.742;11.420;2023-02-16T05:59:52;101660.03;;;0.65;100.00
8585;BME280;7180;52.742;11.420;2023-02-16T06:02:17;101660.03;;;0.53;100.00
8585;BME280;7180;52.742;11.420;2023-02-16T06:04:42;101660.06;;;0.41;100.00
8585;BME280;7180;52.742;11.420;2023-02-16T06:07:08;101664.38;;;0.32;100.00
8585;BME280;7180;52.742;11.420;2023-02-16T06:09:33;101662.63;;;0.20;100.00
8585;BME280;7180;52.742;11.420;2023-02-16T06:11:58;101666.06;;;0.15;100.00
8585;BME280;7180;52.742;11.420;2023-02-16T06:14:23;101663.47;;;0.13;100.00
8585;BME280;7180;52.742;11.420;2023-02-16T06:16:49;101672.09;;;0.15;100.00
8585;BME280;7180;52.742;11.420;2023-02-16T06:19:18;101673.81;;;0.13;100.00
8585;BME280;7180;52.742;11.420;2023-02-16T06:21:44;101674.69;;;0.15;100.00
8585;BME280;7180;52.742;11.420;2023-02-16T06:24:11;101668.69;;;0.16;100.00
8585;BME280;7180;52.742;11.420;2023-02-16T06:26:37;101673.84;;;0.09;100.00
8585;BME280;7180;52.742;11.420;2023-02-16T06:29:05;101684.19;;;0.10;100.00
8585;BME280;7180;52.742;11.420;2023-02-16T06:31:31;101702.28;;;0.13;100.00
8585;BME280;7180;52.742;11.420;2023-02-16T06:33:56;101704.00;;;0.17;100.00
8585;BME280;7180;52.742;11.420;2023-02-16T06:36:22;101703.16;;;0.12;100.00
8585;BME280;7180;52.742;11.420;2023-02-16T06:38:48;101706.56;;;0.08;100.00
8585;BME280;7180;52.742;11.420;2023-02-16T06:41:14;101710.88;;;0.03;100.00
8585;BME280;7180;52.742;11.420;2023-02-16T06:44:02;101718.66;;;0.00;100.00
8585;BME280;7180;52.742;11.420;2023-02-16T06:46:28;101722.94;;;0.03;100.00
8585;BME280;7180;52.742;11.420;2023-02-16T06:48:53;101718.66;;;0.02;100.00
8585;BME280;7180;52.742;11.420;2023-02-16T06:51:19;101722.09;;;0.08;100.00
8585;BME280;7180;52.742;11.420;2023-02-16T06:53:45;101730.72;;;0.13;100.00
8585;BME280;7180;52.742;11.420;2023-02-16T06:56:10;101727.31;;;0.23;100.00
8585;BME280;7180;52.742;11.420;2023-02-16T06:58:35;101728.16;;;0.21;100.00
8585;BME280;7180;52.742;11.420;2023-02-16T07:01:01;101722.09;;;0.20;100.00
8585;BME280;7180;52.742;11.420;2023-02-16T07:03:26;101735.94;;;0.25;100.00
8585;BME280;7180;52.742;11.420;2023-02-16T07:05:51;101737.66;;;0.28;100.00
8585;BME280;7180;52.742;11.420;2023-02-16T07:08:17;101738.53;;;0.37;100.00
8585;BME280;7180;52.742;11.420;2023-02-16T07:10:45;101737.66;;;0.44;100.00
8585;BME280;7180;52.742;11.420;2023-02-16T07:13:11;101736.78;;;0.54;100.00
8585;BME280;7180;52.742;11.420;2023-02-16T07:15:37;101733.38;;;0.66;100.00
8585;BME280;7180;52.742;11.420;2023-02-16T07:18:02;101742.88;;;0.77;100.00
8585;BME280;7180;52.742;11.420;2023-02-16T07:20:27;101749.75;;;0.90;100.00
8585;BME280;7180;52.742;11.420;2023-02-16T07:22:53;101753.19;;;1.01;100.00
8585;BME280;7180;52.742;11.420;2023-02-16T07:25:18;101753.19;;;1.14;100.00
8585;BME280;7180;52.742;11.420;2023-02-16T07:27:43;101753.16;;;1.23;100.00
8585;BME280;7180;52.742;11.420;2023-02-16T07:30:09;101751.38;;;1.43;100.00
8585;BME280;7180;52.742;11.420;2023-02-16T07:32:36;101751.34;;;1.55;100.00
8585;BME280;7180;52.742;11.420;2023-02-16T07:35:01;101754.72;;;1.72;100.00
8585;BME280;7180;52.742;11.420;2023-02-16T07:37:26;101754.69;;;1.84;100.00
8585;BME280;7180;52.742;11.420;2023-02-16T07:39:51;101748.59;;;1.92;100.00
8585;BME280;7180;52.742;11.420;2023-02-16T07:42:18;101748.56;;;2.00;100.00
8585;BME280;7180;52.742;11.420;2023-02-16T07:44:43;101747.69;;;2.01;100.00
8585;BME280;7180;52.742;11.420;2023-02-16T07:47:08;101748.50;;;2.06;100.00
8585;BME280;7180;52.742;11.420;2023-02-16T07:49:33;101752.78;;;2.13;100.00
8585;BME280;7180;52.742;11.420;2023-02-16T07:51:59;101759.69;;;2.20;100.00
8585;BME280;7180;52.742;11.420;2023-02-16T07:54:24;101761.38;;;2.24;100.00
8585;BME280;7180;52.742;11.420;2023-02-16T07:56:49;101757.91;;;2.22;100.00
8585;BME280;7180;52.742;11.420;2023-02-16T07:59:14;101757.09;;;2.20;100.00
8585;BME280;7180;52.742;11.420;2023-02-16T08:01:41;101762.28;;;2.17;100.00
8585;BME280;7180;52.742;11.420;2023-02-16T08:04:06;101752.81;;;2.10;100.00
8585;BME280;7180;52.742;11.420;2023-02-16T08:06:33;101764.94;;;2.11;100.00
8585;BME280;7180;52.742;11.420;2023-02-16T08:08:58;101760.59;;;2.15;100.00
8585;BME280;7180;52.742;11.420;2023-02-16T08:11:24;101756.25;;;2.18;100.00
8585;BME280;7180;52.742;11.420;2023-02-16T08:13:50;101764.81;;;2.26;100.00
8585;BME280;7180;52.742;11.420;2023-02-16T08:16:23;101756.13;;;2.36;100.00
8585;BME280;7180;52.742;11.420;2023-02-16T08:18:49;101754.31;;;2.44;100.00
8585;BME280;7180;52.742;11.420;2023-02-16T08:21:20;101752.56;;;2.48;100.00
8585;BME280;7180;52.742;11.420;2023-02-16T08:23:51;101749.00;;;2.62;100.00
8585;BME280;7180;52.742;11.420;2023-02-16T08:26:18;101758.38;;;2.83;100.00
8585;BME280;7180;52.742;11.420;2023-02-16T08:28:45;101755.63;;;2.96;100.00
8585;BME280;7180;52.742;11.420;2023-02-16T08:31:12;101757.19;;;3.15;100.00
8585;BME280;7180;52.742;11.420;2023-02-16T08:33:38;101748.38;;;3.29;100.00
8585;BME280;7180;52.742;11.420;2023-02-16T08:36:03;101745.75;;;3.33;100.00
8585;BME280;7180;52.742;11.420;2023-02-16T08:38:33;101739.56;;;3.45;100.00
8585;BME280;7180;52.742;11.420;2023-02-16T08:40:58;101738.53;;;3.58;100.00
8585;BME280;7180;52.742;11.420;2023-02-16T08:43:24;101732.31;;;3.71;100.00
8585;BME280;7180;52.742;11.420;2023-02-16T08:45:49;101726.16;;;3.78;100.00
8585;BME280;7180;52.742;11.420;2023-02-16T08:48:15;101728.59;;;3.91;100.00
8585;BME280;7180;52.742;11.420;2023-02-16T08:50:45;101717.16;;;4.01;100.00
8585;BME280;7180;52.742;11.420;2023-02-16T08:53:12;101709.03;;;4.24;100.00
8585;BME280;7180;52.742;11.420;2023-02-16T08:55:37;101681.88;;;4.40;100.00
8585;BME280;7180;52.742;11.420;2023-02-16T08:58:03;101672.78;;;4.65;100.00
8585;BME280;7180;52.742;11.420;2023-02-16T09:00:28;101649.16;;;4.74;100.00
8585;BME280;7180;52.742;11.420;2023-02-16T09:03:00;101630.63;;;4.91;100.00
8585;BME280;7180;52.742;11.420;2023-02-16T09:05:26;101600.75;;;5.07;100.00
8585;BME280;7180;52.742;11.420;2023-02-16T09:07:54;101569.41;;;5.10;100.00
8585;BME280;7180;52.742;11.420;2023-02-16T09:10:20;101539.00;;;5.10;100.00
8585;BME280;7180;52.742;11.420;2023-02-16T09:12:48;101510.94;;;5.21;100.00
8585;BME280;7180;52.742;11.420;2023-02-16T09:15:15;101465.63;;;5.25;100.00
8585;BME280;7180;52.742;11.420;2023-02-16T09:17:41;101426.56;;;5.24;100.00
8585;BME280;7180;52.742;11.420;2023-02-16T09:20:07;101379.38;;;5.35;100.00
8585;BME280;7180;52.742;11.420;2023-02-16T09:22:33;101330.59;;;5.38;100.00
8585;BME280;7180;52.742;11.420;2023-02-16T09:24:58;101298.22;;;5.47;100.00
8585;BME280;7180;52.742;11.420;2023-02-16T09:27:24;101273.34;;;5.66;100.00
8585;BME280;7180;52.742;11.420;2023-02-16T09:29:50;101214.22;;;5.66;100.00
8585;BME280;7180;52.742;11.420;2023-02-16T09:32:15;101156.31;;;5.54;100.00
8585;BME280;7180;52.742;11.420;2023-02-16T09:34:41;101126.94;;;5.47;100.00
8585;BME280;7180;52.742;11.420;2023-02-16T09:37:08;101105.22;;;5.47;100.00
8585;BME280;7180;52.742;11.420;2023-02-16T09:39:34;101093.63;;;5.57;100.00
8585;BME280;7180;52.742;11.420;2023-02-16T09:42:32;101079.34;;;5.68;100.00
8585;BME280;7180;52.742;11.420;2023-02-16T09:45:08;101074.38;;;5.90;100.00
8585;BME280;7180;52.742;11.420;2023-02-16T09:47:39;101029.00;;;5.94;100.00
8585;BME280;7180;52.742;11.420;2023-02-16T09:50:23;100987.25;;;5.94;100.00
8585;BME280;7180;52.742;11.420;2023-02-16T09:52:57;100978.31;;;5.99;100.00
8585;BME280;7180;52.742;11.420;2023-02-16T09:55:33;100966.88;;;6.03;99.97
8585;BME280;7180;52.742;11.420;2023-02-16T09:58:10;100957.63;;;6.19;99.40
8585;BME280;7180;52.742;11.420;2023-02-16T10:01:00;100944.09;;;6.33;98.85
8585;BME280;7180;52.742;11.420;2023-02-16T10:06:27;100894.59;;;6.53;97.71
8585;BME280;7180;52.742;11.420;2023-02-16T10:08:58;100873.09;;;6.68;97.66
8585;BME280;7180;52.742;11.420;2023-02-16T10:11:34;100829.41;;;6.72;96.91
8585;BME280;7180;52.742;11.420;2023-02-16T10:19:51;100776.38;;;7.11;95.21
8585;BME280;7180;52.742;11.420;2023-02-16T10:22:37;100746.84;;;7.29;94.82
8585;BME280;7180;52.742;11.420;2023-02-16T10:25:41;100665.50;;;7.56;93.38
8585;BME280;7180;52.742;11.420;2023-02-16T10:28:16;100613.94;;;7.76;92.67
8585;BME280;7180;52.742;11.420;2023-02-16T10:30:48;100509.56;;;7.87;91.42
8585;BME280;7180;52.742;11.420;2023-02-16T10:33:19;100465.03;;;7.89;91.19
8585;BME280;7180;52.742;11.420;2023-02-16T10:35:57;100392.34;;;7.94;90.18
8585;BME280;7180;52.742;11.420;2023-02-16T10:38:36;100338.91;;;7.81;89.33
8585;BME280;7180;52.742;11.420;2023-02-16T10:41:19;100374.00;;;7.94;89.33
8585;BME280;7180;52.742;11.420;2023-02-16T10:43:59;100350.06;;;8.01;89.31
8585;BME280;7180;52.742;11.420;2023-02-16T10:46:30;100344.13;;;7.98;88.89
8585;BME280;7180;52.742;11.420;2023-02-16T10:48:58;100386.16;;;8.29;88.53
8585;BME280;7180;52.742;11.420;2023-02-16T10:51:29;100291.22;;;8.41;88.17
8585;BME280;7180;52.742;11.420;2023-02-16T10:54:09;100247.19;;;8.32;87.67
8585;BME280;7180;52.742;11.420;2023-02-16T10:59:15;100317.41;;;8.41;87.60
8585;BME280;7180;52.742;11.420;2023-02-16T11:01:46;100280.56;;;8.44;87.35
8585;BME280;7180;52.742;11.420;2023-02-16T11:04:35;100252.31;;;8.49;87.26
8585;BME280;7180;52.742;11.420;2023-02-16T11:07:18;100222.59;;;8.50;86.86
8585;BME280;7180;52.742;11.420;2023-02-16T11:09:47;100245.53;;;8.76;86.32
8585;BME280;7180;52.742;11.420;2023-02-16T11:12:19;100226.47;;;9.04;86.28
8585;BME280;7180;52.742;11.420;2023-02-16T11:14:49;100124.78;;;9.23;84.82
8585;BME280;7180;52.742;11.420;2023-02-16T11:17:17;99953.06;;;9.28;83.80
8585;BME280;7180;52.742;11.420;2023-02-16T11:19:50;99908.06;;;9.34;83.48
8585;BME280;7180;52.742;11.420;2023-02-16T11:22:36;99923.81;;;9.34;83.60
8585;BME280;7180;52.742;11.420;2023-02-16T11:25:19;99978.88;;;9.49;83.34
8585;BME280;7180;52.742;11.420;2023-02-16T11:27:59;100026.06;;;9.63;83.34
8585;BME280;7180;52.742;11.420;2023-02-16T11:30:37;100046.13;;;9.78;83.55
8585;BME280;7180;52.742;11.420;2023-02-16T11:33:19;99911.47;;;9.76;83.00
8585;BME280;7180;52.742;11.420;2023-02-16T11:35:44;99858.56;;;9.82;82.35
8585;BME280;7180;52.742;11.420;2023-02-16T11:38:29;99886.63;;;9.94;82.22
8585;BME280;7180;52.742;11.420;2023-02-16T11:40:57;99811.63;;;9.90;81.60
8585;BME280;7180;52.742;11.420;2023-02-16T11:43:25;99830.53;;;9.82;81.69
8585;BME280;7180;52.742;11.420;2023-02-16T11:46:02;99844.50;;;9.83;82.02
8585;BME280;7180;52.742;11.420;2023-02-16T11:48:30;99782.00;;;9.88;81.30
8585;BME280;7180;52.742;11.420;2023-02-16T11:51:02;99674.06;;;9.80;81.11
8585;BME280;7180;52.742;11.420;2023-02-16T11:53:31;99727.50;;;9.79;80.96
8585;BME280;7180;52.742;11.420;2023-02-16T11:56:23;99738.56;;;9.84;81.22
8585;BME280;7180;52.742;11.420;2023-02-16T11:59:15;99728.69;;;9.62;81.25
8585;BME280;7180;52.742;11.420;2023-02-16T12:04:41;99818.81;;;9.49;81.94
8585;BME280;7180;52.742;11.420;2023-02-16T12:07:25;99842.22;;;9.52;82.22
8585;BME280;7180;52.742;11.420;2023-02-16T12:10:07;99901.78;;;9.37;82.62
8585;BME280;7180;52.742;11.420;2023-02-16T12:12:50;99928.75;;;9.39;82.66
8585;BME280;7180;52.742;11.420;2023-02-16T12:21:32;99842.03;;;9.55;82.01
8585;BME280;7180;52.742;11.420;2023-02-16T12:25:01;99830.91;;;9.51;82.12
8585;BME280;7180;52.742;11.420;2023-02-16T12:27:27;99832.94;;;9.73;82.13
8585;BME280;7180;52.742;11.420;2023-02-16T12:33:19;99769.28;;;9.57;81.84
8585;BME280;7180;52.742;11.420;2023-02-16T12:44:01;99487.47;;;10.06;79.58
8585;BME280;7180;52.742;11.420;2023-02-16T12:46:31;99516.44;;;10.17;79.34
8585;BME280;7180;52.742;11.420;2023-02-16T12:49:11;99459.88;;;10.24;79.12
8585;BME280;7180;52.742;11.420;2023-02-16T12:51:50;99353.47;;;10.30;78.54
8585;BME280;7180;52.742;11.420;2023-02-16T12:54:30;99466.56;;;10.28;79.30
8585;BME280;7180;52.742;11.420;2023-02-16T12:57:03;99474.53;;;10.16;79.10
8585;BME280;7180;52.742;11.420;2023-02-16T12:59:38;99467.94;;;10.45;79.20
8585;BME280;7180;52.742;11.420;2023-02-16T13:02:14;99260.66;;;10.07;78.62
8585;BME280;7180;52.742;11.420;2023-02-16T13:04:49;99223.28;;;10.04;77.86
8585;BME280;7180;52.742;11.420;2023-02-16T13:07:32;99225.22;;;10.13;77.91
8585;BME280;7180;52.742;11.420;2023-02-16T13:13:09;99112.44;;;9.89;77.40
8585;BME280;7180;52.742;11.420;2023-02-16T13:15:39;99174.50;;;9.90;77.43
8585;BME280;7180;52.742;11.420;2023-02-16T13:18:22;99251.22;;;9.94;77.80
8585;BME280;7180;52.742;11.420;2023-02-16T13:20:52;99210.88;;;9.73;78.23
8585;BME280;7180;52.742;11.420;2023-02-16T13:23:35;99302.91;;;9.59;79.17
8585;BME280;7180;52.742;11.420;2023-02-16T13:40:48;99344.00;;;9.71;78.92
8585;BME280;7180;52.742;11.420;2023-02-16T13:43:53;99273.13;;;9.60;78.99
8585;BME280;7180;52.742;11.420;2023-02-16T13:46:32;99402.78;;;9.68;79.50
8585;BME280;7180;52.742;11.420;2023-02-16T13:48:59;99383.38;;;9.47;79.87
8585;BME280;7180;52.742;11.420;2023-02-16T13:51:27;99520.75;;;9.33;80.63
8585;BME280;7180;52.742;11.420;2023-02-16T13:53:57;99664.00;;;9.36;81.49
8585;BME280;7180;52.742;11.420;2023-02-16T13:56:33;99667.66;;;9.33;81.56
8585;BME280;7180;52.742;11.420;2023-02-16T14:01:50;99684.34;;;9.20;81.82
8585;BME280;7180;52.742;11.420;2023-02-16T14:20:05;99660.63;;;9.09;82.06
8585;BME280;7180;52.742;11.420;2023-02-16T14:22:51;99634.59;;;9.06;81.91
8585;BME280;7180;52.742;11.420;2023-02-16T14:30:26;99538.75;;;9.14;81.53
8585;BME280;7180;52.742;11.420;2023-02-16T14:35:35;99531.81;;;9.01;81.59
8585;BME280;7180;52.742;11.420;2023-02-16T14:38:02;99562.44;;;9.00;81.66
8585;BME280;7180;52.742;11.420;2023-02-16T14:43:05;99584.78;;;8.93;81.86
8585;BME280;7180;52.742;11.420;2023-02-16T14:45:57;99555.94;;;8.93;81.62
8585;BME280;7180;52.742;11.420;2023-02-16T14:56:39;99513.38;;;8.77;82.00
8585;BME280;7180;52.742;11.420;2023-02-16T14:59:33;99527.09;;;8.81;81.59
8585;BME280;7180;52.742;11.420;2023-02-16T15:01:59;99577.63;;;8.83;81.82
8585;BME280;7180;52.742;11.420;2023-02-16T15:04:29;99568.41;;;8.77;81.89
8585;BME280;7180;52.742;11.420;2023-02-16T15:06:56;99523.84;;;8.77;82.06
8585;BME280;7180;52.742;11.420;2023-02-16T15:09:28;99544.38;;;8.83;82.03
8585;BME280;7180;52.742;11.420;2023-02-16T15:11:58;99577.53;;;8.84;82.28
8585;BME280;7180;52.742;11.420;2023-02-16T15:15:02;99574.06;;;8.96;81.87
8585;BME280;7180;52.742;11.420;2023-02-16T15:17:47;99531.19;;;8.97;81.65
8585;BME280;7180;52.742;11.420;2023-02-16T15:20:35;99509.78;;;8.78;81.58